YMML/MEL METAR and TAF weather

Enter ICAO airport designator
Station Type Date Time Source
YMML METAR 2021/03/05 06:30 UTC NOAA

YMML 050630Z 18016KT 9999 FEW037 BKN042 16/04 Q1015


Station Type Date Time Source
YMML Decoded METAR 2021/03/05 06:30 UTC NOAA

Melbourne Airport, Australia (YMML) 37-40S 144-50E 141M
Mar 05, 2021 - 01:30 AM EST / 2021.03.05 0630 UTC
Wind: from the S (180 degrees) at 18 MPH (16 KT):0
Visibility: greater than 7 mile(s):0
Sky conditions: mostly cloudy
Temperature: 60 F (16 C)
Dew Point: 39 F (4 C)
Relative Humidity: 44%
Pressure (altimeter): 29.97 in. Hg (1015 hPa)
ob: YMML 050630Z 18016KT 9999 FEW037 BKN042 16/04 Q1015
cycle: 6

Station Type Date Time Source
YMML TAF 2021/03/05 06:33 UTC NOAA

TAF YMML 050506Z 0506/0612 18014KT 9999 FEW030 BKN040
FM050900 19010KT 9999 -SHRA BKN030
FM051200 18008KT 9999 NSW BKN030
BECMG 0522/0600 17010KT CAVOK
BECMG 0609/0611 25005KT CAVOK

Example: see airport list